Meath Environmental Platform

Observations for Trim Patrick St

Time AQI Temp °C Hum % Pres Pa CO μg/m³ H₂S μg/m³ NO μg/m³ NO₂ μg/m³ O₃ μg/m³ SO₂ μg/m³ PM1 μg/m³ PM2.5 μg/m³ PM10 μg/m³
Wednesday 26 August 2026
13:25 2 21.7 76 38,460 0.23 0 2.67 13.39 28.62 2.76 12.29 16.87 18.55
13:24 2 21.6 75 38,460 0.14 0 2.04 13.61 35.31 2.31 12.29 17.59 19.35
13:23 2 21.6 75 38,460 0.12 0 2.36 14.05 40.04 2.52 11.43 17.6 19.36
13:22 2 21.5 76 38,460 0.13 0 1.6 11.36 37.48 2.16 14 20.36 22.4
13:21 2 21.4 76 38,460 0.14 0 1.13 13.46 41.11 2.66 14 17.51 19.26
13:18 2 21.2 76 38,460 0.14 0 1.17 15.63 37.25 2.05 14 17.5 19.25
13:17 2 21.2 76 38,460 0.12 0 1.16 14.76 33.7 2.34 13.14 16.77 18.44
13:16 2 21.1 77 38,460 0.12 0 1.07 13.1 41.25 1.36 14 18.87 20.76
13:15 2 21.1 77 38,460 0.12 0 0.86 13.83 37.09 1.73 10.57 14.63 16.09
13:14 2 21.1 78 38,460 0.09 0 1.08 13.99 40.46 1.27 14 19.48 21.43
13:13 2 21 77 38,460 0.1 0 2 13.66 33.17 0.44 13.14 16.02 17.62
13:12 2 21 78 38,460 0.12 0 1.86 13.13 35.43 0.96 12.29 18.04 19.84
13:11 2 20.9 78 38,460 0.11 0 2.44 20.48 31.78 1.45 13.14 16.67 18.34
13:10 2 20.8 77 38,460 0.12 0 2.49 16.15 38.07 1.13 14 19.5 21.45
13:09 2 20.8 78 38,460 0.13 2.34 2.28 20.1 39.33 1.69 15.71 20.2 22.22
13:08 2 20.7 78 38,460 0.14 2.51 1.91 30.12 45.57 1.26 10.57 15.9 17.49
13:07 2 20.7 77 38,460 0.12 0.79 1.82 19.89 37.23 2.06 12.29 18.85 20.73
13:06 2 20.7 77 38,460 0.12 0 1.81 18.64 28.45 2.58 11.43 15.3 16.83
13:05 2 20.7 77 38,460 0.09 0 2.14 14.58 36.37 0 14 20.24 22.26
13:04 2 20.6 78 38,460 0.1 0 2.35 18.42 34.21 0.81 14.86 19.48 21.43